sensor_id;sensor_type;location;lat;lon;timestamp;P1;durP1;ratioP1;P2;durP2;ratioP2
60993;SDS011;47611;54.932;73.338;2022-07-23T00:01:21;12.20;;;4.97;;
60993;SDS011;47611;54.932;73.338;2022-07-23T00:03:57;5.45;;;4.40;;
60993;SDS011;47611;54.932;73.338;2022-07-23T00:06:23;10.80;;;6.45;;
60993;SDS011;47611;54.932;73.338;2022-07-23T00:08:50;9.52;;;5.03;;
60993;SDS011;47611;54.932;73.338;2022-07-23T00:11:18;16.77;;;5.65;;
60993;SDS011;47611;54.932;73.338;2022-07-23T00:13:44;10.43;;;5.35;;
60993;SDS011;47611;54.932;73.338;2022-07-23T00:16:10;11.68;;;5.05;;
60993;SDS011;47611;54.932;73.338;2022-07-23T00:18:36;7.97;;;5.13;;
60993;SDS011;47611;54.932;73.338;2022-07-23T00:21:02;11.15;;;5.28;;
60993;SDS011;47611;54.932;73.338;2022-07-23T00:23:28;10.75;;;5.22;;
60993;SDS011;47611;54.932;73.338;2022-07-23T00:25:56;12.20;;;4.68;;
60993;SDS011;47611;54.932;73.338;2022-07-23T00:28:22;11.35;;;4.80;;
60993;SDS011;47611;54.932;73.338;2022-07-23T00:30:48;9.55;;;5.10;;
60993;SDS011;47611;54.932;73.338;2022-07-23T00:33:14;7.70;;;5.15;;
60993;SDS011;47611;54.932;73.338;2022-07-23T00:35:40;11.25;;;4.65;;
60993;SDS011;47611;54.932;73.338;2022-07-23T00:38:10;7.65;;;4.82;;
60993;SDS011;47611;54.932;73.338;2022-07-23T00:40:36;12.02;;;5.20;;
60993;SDS011;47611;54.932;73.338;2022-07-23T00:43:07;10.27;;;5.40;;
60993;SDS011;47611;54.932;73.338;2022-07-23T00:45:34;9.90;;;5.07;;
60993;SDS011;47611;54.932;73.338;2022-07-23T00:48:00;7.15;;;5.03;;
60993;SDS011;47611;54.932;73.338;2022-07-23T00:50:26;7.78;;;5.03;;
60993;SDS011;47611;54.932;73.338;2022-07-23T00:52:53;10.52;;;5.20;;
60993;SDS011;47611;54.932;73.338;2022-07-23T00:55:19;11.45;;;4.88;;
60993;SDS011;47611;54.932;73.338;2022-07-23T00:57:45;13.55;;;5.20;;
60993;SDS011;47611;54.932;73.338;2022-07-23T01:00:12;11.50;;;5.30;;
60993;SDS011;47611;54.932;73.338;2022-07-23T01:02:39;13.68;;;5.72;;
60993;SDS011;47611;54.932;73.338;2022-07-23T01:05:15;13.02;;;6.22;;
60993;SDS011;47611;54.932;73.338;2022-07-23T01:07:50;9.48;;;5.65;;
60993;SDS011;47611;54.932;73.338;2022-07-23T01:10:17;10.10;;;5.55;;
60993;SDS011;47611;54.932;73.338;2022-07-23T01:13:05;10.75;;;6.07;;
60993;SDS011;47611;54.932;73.338;2022-07-23T01:15:31;8.27;;;5.63;;
60993;SDS011;47611;54.932;73.338;2022-07-23T01:18:03;7.32;;;5.40;;
60993;SDS011;47611;54.932;73.338;2022-07-23T01:20:30;11.27;;;5.50;;
60993;SDS011;47611;54.932;73.338;2022-07-23T01:22:56;9.15;;;5.45;;
60993;SDS011;47611;54.932;73.338;2022-07-23T01:25:23;8.85;;;5.50;;
60993;SDS011;47611;54.932;73.338;2022-07-23T01:27:56;10.73;;;5.40;;
60993;SDS011;47611;54.932;73.338;2022-07-23T01:30:22;11.98;;;5.25;;
60993;SDS011;47611;54.932;73.338;2022-07-23T01:32:50;10.68;;;5.45;;
60993;SDS011;47611;54.932;73.338;2022-07-23T01:35:21;12.63;;;5.57;;
60993;SDS011;47611;54.932;73.338;2022-07-23T01:37:57;12.52;;;5.60;;
60993;SDS011;47611;54.932;73.338;2022-07-23T01:40:23;11.88;;;5.80;;
60993;SDS011;47611;54.932;73.338;2022-07-23T01:42:50;9.25;;;5.18;;
60993;SDS011;47611;54.932;73.338;2022-07-23T01:45:17;10.15;;;5.72;;
60993;SDS011;47611;54.932;73.338;2022-07-23T01:47:48;12.50;;;5.47;;
60993;SDS011;47611;54.932;73.338;2022-07-23T01:50:24;10.27;;;5.20;;
60993;SDS011;47611;54.932;73.338;2022-07-23T01:53:13;11.80;;;6.60;;
60993;SDS011;47611;54.932;73.338;2022-07-23T01:55:39;9.80;;;6.65;;
60993;SDS011;47611;54.932;73.338;2022-07-23T01:58:06;15.27;;;7.05;;
60993;SDS011;47611;54.932;73.338;2022-07-23T02:00:32;22.38;;;7.78;;
60993;SDS011;47611;54.932;73.338;2022-07-23T02:02:58;18.05;;;7.18;;
60993;SDS011;47611;54.932;73.338;2022-07-23T02:05:25;16.95;;;6.53;;
60993;SDS011;47611;54.932;73.338;2022-07-23T02:07:51;21.80;;;7.00;;
60993;SDS011;47611;54.932;73.338;2022-07-23T02:10:17;19.45;;;6.40;;
60993;SDS011;47611;54.932;73.338;2022-07-23T02:12:43;12.90;;;6.00;;
60993;SDS011;47611;54.932;73.338;2022-07-23T02:15:09;18.75;;;7.05;;
60993;SDS011;47611;54.932;73.338;2022-07-23T02:17:46;15.10;;;6.43;;
60993;SDS011;47611;54.932;73.338;2022-07-23T02:20:12;17.63;;;6.38;;
60993;SDS011;47611;54.932;73.338;2022-07-23T02:22:38;21.30;;;5.97;;
60993;SDS011;47611;54.932;73.338;2022-07-23T02:25:04;15.88;;;5.40;;
60993;SDS011;47611;54.932;73.338;2022-07-23T02:27:31;22.98;;;5.93;;
60993;SDS011;47611;54.932;73.338;2022-07-23T02:29:57;14.85;;;5.20;;
60993;SDS011;47611;54.932;73.338;2022-07-23T02:32:23;10.50;;;5.15;;
60993;SDS011;47611;54.932;73.338;2022-07-23T02:34:50;9.38;;;5.53;;
60993;SDS011;47611;54.932;73.338;2022-07-23T02:37:17;9.18;;;4.75;;
60993;SDS011;47611;54.932;73.338;2022-07-23T02:39:43;10.95;;;5.60;;
60993;SDS011;47611;54.932;73.338;2022-07-23T02:42:11;11.90;;;5.53;;
60993;SDS011;47611;54.932;73.338;2022-07-23T02:44:38;10.82;;;5.57;;
60993;SDS011;47611;54.932;73.338;2022-07-23T02:47:04;11.30;;;5.60;;
60993;SDS011;47611;54.932;73.338;2022-07-23T02:49:32;12.20;;;5.90;;
60993;SDS011;47611;54.932;73.338;2022-07-23T02:52:02;12.45;;;6.47;;
60993;SDS011;47611;54.932;73.338;2022-07-23T02:54:28;11.95;;;5.63;;
60993;SDS011;47611;54.932;73.338;2022-07-23T02:56:54;9.68;;;5.63;;
60993;SDS011;47611;54.932;73.338;2022-07-23T02:59:21;9.20;;;5.60;;
60993;SDS011;47611;54.932;73.338;2022-07-23T03:01:47;12.90;;;5.93;;
60993;SDS011;47611;54.932;73.338;2022-07-23T03:04:13;10.50;;;5.38;;
60993;SDS011;47611;54.932;73.338;2022-07-23T03:06:41;12.10;;;5.78;;
60993;SDS011;47611;54.932;73.338;2022-07-23T03:09:08;17.20;;;6.45;;
60993;SDS011;47611;54.932;73.338;2022-07-23T03:11:34;14.07;;;6.13;;
60993;SDS011;47611;54.932;73.338;2022-07-23T03:14:00;10.77;;;5.20;;
60993;SDS011;47611;54.932;73.338;2022-07-23T03:16:36;17.23;;;6.68;;
60993;SDS011;47611;54.932;73.338;2022-07-23T03:19:02;13.55;;;6.82;;
60993;SDS011;47611;54.932;73.338;2022-07-23T03:21:28;11.32;;;6.20;;
60993;SDS011;47611;54.932;73.338;2022-07-23T03:23:54;17.20;;;6.55;;
60993;SDS011;47611;54.932;73.338;2022-07-23T03:26:29;11.00;;;5.38;;
60993;SDS011;47611;54.932;73.338;2022-07-23T03:29:05;9.60;;;5.40;;
60993;SDS011;47611;54.932;73.338;2022-07-23T03:31:31;9.82;;;5.03;;
60993;SDS011;47611;54.932;73.338;2022-07-23T03:33:58;14.43;;;6.38;;
60993;SDS011;47611;54.932;73.338;2022-07-23T03:36:24;9.65;;;6.13;;
60993;SDS011;47611;54.932;73.338;2022-07-23T03:39:03;13.13;;;6.22;;
60993;SDS011;47611;54.932;73.338;2022-07-23T03:41:29;13.40;;;6.07;;
60993;SDS011;47611;54.932;73.338;2022-07-23T03:43:55;11.18;;;5.60;;
60993;SDS011;47611;54.932;73.338;2022-07-23T03:46:21;10.25;;;5.63;;
60993;SDS011;47611;54.932;73.338;2022-07-23T03:48:48;8.57;;;5.07;;
60993;SDS011;47611;54.932;73.338;2022-07-23T03:51:14;10.15;;;5.70;;
60993;SDS011;47611;54.932;73.338;2022-07-23T03:53:40;11.32;;;5.72;;
60993;SDS011;47611;54.932;73.338;2022-07-23T03:56:06;10.95;;;5.68;;
60993;SDS011;47611;54.932;73.338;2022-07-23T03:58:33;9.50;;;5.30;;
60993;SDS011;47611;54.932;73.338;2022-07-23T04:00:59;13.07;;;5.63;;
60993;SDS011;47611;54.932;73.338;2022-07-23T04:03:25;8.27;;;5.03;;
60993;SDS011;47611;54.932;73.338;2022-07-23T04:06:03;8.55;;;5.50;;
60993;SDS011;47611;54.932;73.338;2022-07-23T04:08:34;7.05;;;5.30;;
60993;SDS011;47611;54.932;73.338;2022-07-23T04:11:02;14.68;;;5.50;;
60993;SDS011;47611;54.932;73.338;2022-07-23T04:13:28;9.30;;;5.20;;
60993;SDS011;47611;54.932;73.338;2022-07-23T04:15:54;9.98;;;5.57;;
60993;SDS011;47611;54.932;73.338;2022-07-23T04:18:20;9.57;;;5.00;;
60993;SDS011;47611;54.932;73.338;2022-07-23T04:21:07;11.68;;;5.43;;
60993;SDS011;47611;54.932;73.338;2022-07-23T04:23:34;14.60;;;9.13;;
60993;SDS011;47611;54.932;73.338;2022-07-23T04:26:01;9.45;;;6.35;;
60993;SDS011;47611;54.932;73.338;2022-07-23T04:28:27;11.82;;;6.50;;
60993;SDS011;47611;54.932;73.338;2022-07-23T04:30:55;15.02;;;6.45;;
60993;SDS011;47611;54.932;73.338;2022-07-23T04:33:21;13.15;;;7.53;;
60993;SDS011;47611;54.932;73.338;2022-07-23T04:35:50;10.82;;;6.32;;
60993;SDS011;47611;54.932;73.338;2022-07-23T04:38:20;13.65;;;6.75;;
60993;SDS011;47611;54.932;73.338;2022-07-23T04:40:48;9.73;;;6.20;;
60993;SDS011;47611;54.932;73.338;2022-07-23T04:43:14;9.60;;;6.30;;
60993;SDS011;47611;54.932;73.338;2022-07-23T04:45:49;12.75;;;7.47;;
60993;SDS011;47611;54.932;73.338;2022-07-23T04:48:15;12.60;;;6.13;;
60993;SDS011;47611;54.932;73.338;2022-07-23T04:50:42;9.13;;;6.13;;
60993;SDS011;47611;54.932;73.338;2022-07-23T04:53:15;7.32;;;5.50;;
60993;SDS011;47611;54.932;73.338;2022-07-23T04:55:42;11.98;;;5.90;;
60993;SDS011;47611;54.932;73.338;2022-07-23T04:58:08;12.02;;;5.93;;
60993;SDS011;47611;54.932;73.338;2022-07-23T05:00:35;8.50;;;5.88;;
60993;SDS011;47611;54.932;73.338;2022-07-23T05:03:04;9.55;;;5.60;;
60993;SDS011;47611;54.932;73.338;2022-07-23T05:05:32;7.53;;;4.47;;
60993;SDS011;47611;54.932;73.338;2022-07-23T05:08:15;8.05;;;5.15;;
60993;SDS011;47611;54.932;73.338;2022-07-23T05:10:43;8.45;;;5.32;;
60993;SDS011;47611;54.932;73.338;2022-07-23T05:13:14;10.52;;;5.18;;
60993;SDS011;47611;54.932;73.338;2022-07-23T05:15:40;7.80;;;5.30;;
60993;SDS011;47611;54.932;73.338;2022-07-23T05:18:06;13.30;;;6.68;;
60993;SDS011;47611;54.932;73.338;2022-07-23T05:20:32;9.60;;;5.18;;
60993;SDS011;47611;54.932;73.338;2022-07-23T05:22:58;13.23;;;6.13;;
60993;SDS011;47611;54.932;73.338;2022-07-23T05:25:25;10.93;;;7.22;;
60993;SDS011;47611;54.932;73.338;2022-07-23T05:27:51;10.52;;;7.60;;
60993;SDS011;47611;54.932;73.338;2022-07-23T05:30:17;11.18;;;7.57;;
60993;SDS011;47611;54.932;73.338;2022-07-23T05:32:55;13.13;;;7.65;;
60993;SDS011;47611;54.932;73.338;2022-07-23T05:35:25;15.20;;;6.72;;
60993;SDS011;47611;54.932;73.338;2022-07-23T05:38:17;10.90;;;7.18;;
60993;SDS011;47611;54.932;73.338;2022-07-23T05:40:43;14.82;;;8.00;;
60993;SDS011;47611;54.932;73.338;2022-07-23T05:43:09;14.35;;;9.15;;
60993;SDS011;47611;54.932;73.338;2022-07-23T05:45:35;11.75;;;7.00;;
60993;SDS011;47611;54.932;73.338;2022-07-23T05:48:01;16.08;;;11.45;;
60993;SDS011;47611;54.932;73.338;2022-07-23T05:50:33;14.38;;;8.93;;
60993;SDS011;47611;54.932;73.338;2022-07-23T05:53:06;14.93;;;9.00;;
60993;SDS011;47611;54.932;73.338;2022-07-23T05:55:58;11.90;;;8.35;;
60993;SDS011;47611;54.932;73.338;2022-07-23T05:58:24;11.40;;;7.38;;
60993;SDS011;47611;54.932;73.338;2022-07-23T06:00:56;9.90;;;6.70;;
60993;SDS011;47611;54.932;73.338;2022-07-23T06:03:22;7.00;;;5.78;;
60993;SDS011;47611;54.932;73.338;2022-07-23T06:05:48;11.00;;;6.18;;
60993;SDS011;47611;54.932;73.338;2022-07-23T06:08:14;7.70;;;5.30;;
60993;SDS011;47611;54.932;73.338;2022-07-23T06:10:40;14.35;;;6.30;;
60993;SDS011;47611;54.932;73.338;2022-07-23T06:13:06;8.05;;;5.95;;
60993;SDS011;47611;54.932;73.338;2022-07-23T06:15:37;9.55;;;6.07;;
60993;SDS011;47611;54.932;73.338;2022-07-23T06:18:03;15.80;;;5.70;;
60993;SDS011;47611;54.932;73.338;2022-07-23T06:20:30;13.63;;;6.65;;
60993;SDS011;47611;54.932;73.338;2022-07-23T06:22:57;14.93;;;7.07;;
60993;SDS011;47611;54.932;73.338;2022-07-23T06:25:33;9.60;;;5.55;;
60993;SDS011;47611;54.932;73.338;2022-07-23T06:27:59;19.23;;;9.38;;
60993;SDS011;47611;54.932;73.338;2022-07-23T06:30:26;24.30;;;10.13;;
60993;SDS011;47611;54.932;73.338;2022-07-23T06:32:52;25.63;;;10.50;;
60993;SDS011;47611;54.932;73.338;2022-07-23T06:35:18;9.75;;;6.35;;
60993;SDS011;47611;54.932;73.338;2022-07-23T06:37:46;16.08;;;6.07;;
60993;SDS011;47611;54.932;73.338;2022-07-23T06:40:12;11.05;;;6.40;;
60993;SDS011;47611;54.932;73.338;2022-07-23T06:42:39;18.05;;;6.90;;
60993;SDS011;47611;54.932;73.338;2022-07-23T06:45:06;37.60;;;17.08;;
60993;SDS011;47611;54.932;73.338;2022-07-23T06:47:35;15.60;;;6.97;;
60993;SDS011;47611;54.932;73.338;2022-07-23T06:50:01;37.33;;;15.77;;
60993;SDS011;47611;54.932;73.338;2022-07-23T06:52:26;18.10;;;8.80;;
60993;SDS011;47611;54.932;73.338;2022-07-23T06:54:52;26.27;;;11.75;;
60993;SDS011;47611;54.932;73.338;2022-07-23T06:57:22;23.52;;;10.32;;
60993;SDS011;47611;54.932;73.338;2022-07-23T06:59:51;16.33;;;9.52;;
60993;SDS011;47611;54.932;73.338;2022-07-23T07:02:17;14.90;;;7.00;;
60993;SDS011;47611;54.932;73.338;2022-07-23T07:04:43;34.25;;;15.63;;
60993;SDS011;47611;54.932;73.338;2022-07-23T07:07:09;63.25;;;25.15;;
60993;SDS011;47611;54.932;73.338;2022-07-23T07:09:35;51.25;;;22.00;;
60993;SDS011;47611;54.932;73.338;2022-07-23T07:12:01;22.60;;;11.40;;
60993;SDS011;47611;54.932;73.338;2022-07-23T07:14:27;47.65;;;20.52;;
60993;SDS011;47611;54.932;73.338;2022-07-23T07:16:53;36.00;;;15.70;;
60993;SDS011;47611;54.932;73.338;2022-07-23T07:19:19;8.65;;;5.78;;
60993;SDS011;47611;54.932;73.338;2022-07-23T07:21:45;38.25;;;14.25;;
60993;SDS011;47611;54.932;73.338;2022-07-23T07:24:11;32.03;;;13.88;;
60993;SDS011;47611;54.932;73.338;2022-07-23T07:26:36;28.58;;;12.40;;
60993;SDS011;47611;54.932;73.338;2022-07-23T07:29:05;27.30;;;11.77;;
60993;SDS011;47611;54.932;73.338;2022-07-23T07:31:31;24.15;;;11.00;;
60993;SDS011;47611;54.932;73.338;2022-07-23T07:33:57;33.17;;;13.60;;
60993;SDS011;47611;54.932;73.338;2022-07-23T07:36:24;30.20;;;13.10;;
60993;SDS011;47611;54.932;73.338;2022-07-23T07:38:50;33.63;;;12.65;;
60993;SDS011;47611;54.932;73.338;2022-07-23T07:41:16;26.88;;;11.05;;
60993;SDS011;47611;54.932;73.338;2022-07-23T07:43:41;25.65;;;8.95;;
60993;SDS011;47611;54.932;73.338;2022-07-23T07:46:12;18.15;;;7.10;;
60993;SDS011;47611;54.932;73.338;2022-07-23T07:48:42;13.68;;;6.57;;
60993;SDS011;47611;54.932;73.338;2022-07-23T07:51:14;10.13;;;6.13;;
60993;SDS011;47611;54.932;73.338;2022-07-23T07:53:49;8.48;;;4.70;;
60993;SDS011;47611;54.932;73.338;2022-07-23T07:56:20;23.48;;;10.80;;
60993;SDS011;47611;54.932;73.338;2022-07-23T07:58:46;19.52;;;8.88;;
60993;SDS011;47611;54.932;73.338;2022-07-23T08:01:13;16.38;;;9.07;;
60993;SDS011;47611;54.932;73.338;2022-07-23T08:03:39;19.33;;;9.43;;
60993;SDS011;47611;54.932;73.338;2022-07-23T08:06:09;16.92;;;8.13;;
60993;SDS011;47611;54.932;73.338;2022-07-23T08:08:36;14.75;;;8.02;;
60993;SDS011;47611;54.932;73.338;2022-07-23T08:11:02;7.65;;;5.60;;
60993;SDS011;47611;54.932;73.338;2022-07-23T08:13:28;9.90;;;6.50;;
60993;SDS011;47611;54.932;73.338;2022-07-23T08:15:59;9.63;;;5.90;;
60993;SDS011;47611;54.932;73.338;2022-07-23T08:18:25;16.02;;;7.55;;
60993;SDS011;47611;54.932;73.338;2022-07-23T08:20:50;13.70;;;7.10;;
60993;SDS011;47611;54.932;73.338;2022-07-23T08:23:16;7.20;;;5.53;;
60993;SDS011;47611;54.932;73.338;2022-07-23T08:25:45;14.82;;;7.15;;
60993;SDS011;47611;54.932;73.338;2022-07-23T08:28:12;12.98;;;7.40;;
60993;SDS011;47611;54.932;73.338;2022-07-23T08:30:39;7.10;;;5.82;;
60993;SDS011;47611;54.932;73.338;2022-07-23T08:33:11;10.98;;;6.38;;
60993;SDS011;47611;54.932;73.338;2022-07-23T08:35:40;9.85;;;5.97;;
60993;SDS011;47611;54.932;73.338;2022-07-23T08:38:07;6.75;;;5.80;;
60993;SDS011;47611;54.932;73.338;2022-07-23T08:40:34;13.80;;;6.75;;
60993;SDS011;47611;54.932;73.338;2022-07-23T08:43:11;11.20;;;6.47;;
60993;SDS011;47611;54.932;73.338;2022-07-23T08:45:47;8.15;;;6.32;;
60993;SDS011;47611;54.932;73.338;2022-07-23T08:48:17;7.32;;;5.53;;
60993;SDS011;47611;54.932;73.338;2022-07-23T08:50:55;8.50;;;5.93;;
60993;SDS011;47611;54.932;73.338;2022-07-23T08:53:32;10.80;;;6.60;;
60993;SDS011;47611;54.932;73.338;2022-07-23T08:56:00;7.80;;;6.03;;
60993;SDS011;47611;54.932;73.338;2022-07-23T08:58:27;8.88;;;6.18;;
60993;SDS011;47611;54.932;73.338;2022-07-23T09:00:53;8.70;;;5.85;;
60993;SDS011;47611;54.932;73.338;2022-07-23T09:03:22;8.40;;;6.65;;
60993;SDS011;47611;54.932;73.338;2022-07-23T09:05:49;16.20;;;7.00;;
60993;SDS011;47611;54.932;73.338;2022-07-23T09:08:22;10.23;;;7.15;;
60993;SDS011;47611;54.932;73.338;2022-07-23T09:18:41;16.08;;;6.80;;
60993;SDS011;47611;54.932;73.338;2022-07-23T09:23:38;10.85;;;6.57;;
60993;SDS011;47611;54.932;73.338;2022-07-23T09:26:56;16.55;;;7.72;;
60993;SDS011;47611;54.932;73.338;2022-07-23T09:31:33;13.45;;;7.15;;
60993;SDS011;47611;54.932;73.338;2022-07-23T09:34:07;13.52;;;6.90;;
60993;SDS011;47611;54.932;73.338;2022-07-23T09:36:33;8.35;;;6.85;;
60993;SDS011;47611;54.932;73.338;2022-07-23T09:38:59;10.70;;;8.02;;
60993;SDS011;47611;54.932;73.338;2022-07-23T09:41:26;11.70;;;8.20;;
60993;SDS011;47611;54.932;73.338;2022-07-23T09:43:59;14.20;;;7.57;;
60993;SDS011;47611;54.932;73.338;2022-07-23T09:46:31;15.10;;;6.72;;
60993;SDS011;47611;54.932;73.338;2022-07-23T09:48:57;10.43;;;6.53;;
60993;SDS011;47611;54.932;73.338;2022-07-23T09:51:24;9.13;;;5.82;;
60993;SDS011;47611;54.932;73.338;2022-07-23T09:54:02;12.25;;;5.72;;
60993;SDS011;47611;54.932;73.338;2022-07-23T09:56:28;8.75;;;5.40;;
60993;SDS011;47611;54.932;73.338;2022-07-23T09:58:55;14.50;;;5.18;;
60993;SDS011;47611;54.932;73.338;2022-07-23T10:01:37;9.43;;;5.07;;
60993;SDS011;47611;54.932;73.338;2022-07-23T10:04:03;16.77;;;5.97;;
60993;SDS011;47611;54.932;73.338;2022-07-23T10:06:48;17.63;;;7.25;;
60993;SDS011;47611;54.932;73.338;2022-07-23T10:09:36;15.93;;;6.65;;
60993;SDS011;47611;54.932;73.338;2022-07-23T10:12:37;15.35;;;7.63;;
60993;SDS011;47611;54.932;73.338;2022-07-23T10:15:22;14.65;;;7.50;;
60993;SDS011;47611;54.932;73.338;2022-07-23T10:17:48;14.60;;;7.55;;
60993;SDS011;47611;54.932;73.338;2022-07-23T10:20:14;13.02;;;7.00;;
60993;SDS011;47611;54.932;73.338;2022-07-23T10:22:42;12.88;;;6.90;;
60993;SDS011;47611;54.932;73.338;2022-07-23T10:30:25;17.23;;;8.23;;
60993;SDS011;47611;54.932;73.338;2022-07-23T10:33:00;15.95;;;7.40;;
60993;SDS011;47611;54.932;73.338;2022-07-23T10:38:12;28.55;;;16.27;;
60993;SDS011;47611;54.932;73.338;2022-07-23T10:40:49;16.60;;;8.02;;
60993;SDS011;47611;54.932;73.338;2022-07-23T10:43:18;10.00;;;6.13;;
60993;SDS011;47611;54.932;73.338;2022-07-23T10:45:44;8.80;;;7.13;;
60993;SDS011;47611;54.932;73.338;2022-07-23T10:48:14;12.20;;;7.47;;
60993;SDS011;47611;54.932;73.338;2022-07-23T10:50:41;11.60;;;8.18;;
60993;SDS011;47611;54.932;73.338;2022-07-23T10:53:17;10.48;;;6.50;;
60993;SDS011;47611;54.932;73.338;2022-07-23T10:55:48;11.60;;;6.05;;
60993;SDS011;47611;54.932;73.338;2022-07-23T10:58:21;10.63;;;6.13;;
60993;SDS011;47611;54.932;73.338;2022-07-23T11:00:52;11.68;;;5.97;;
60993;SDS011;47611;54.932;73.338;2022-07-23T11:03:28;10.98;;;6.35;;
60993;SDS011;47611;54.932;73.338;2022-07-23T11:05:54;10.13;;;6.97;;
60993;SDS011;47611;54.932;73.338;2022-07-23T11:08:20;10.85;;;6.80;;
60993;SDS011;47611;54.932;73.338;2022-07-23T11:10:50;13.32;;;7.20;;
60993;SDS011;47611;54.932;73.338;2022-07-23T11:13:26;12.90;;;8.18;;
60993;SDS011;47611;54.932;73.338;2022-07-23T11:32:05;10.18;;;5.90;;
60993;SDS011;47611;54.932;73.338;2022-07-23T11:37:02;7.95;;;5.53;;
60993;SDS011;47611;54.932;73.338;2022-07-23T11:39:29;10.88;;;5.93;;
60993;SDS011;47611;54.932;73.338;2022-07-23T11:41:56;10.80;;;5.93;;
60993;SDS011;47611;54.932;73.338;2022-07-23T11:44:26;10.98;;;6.00;;
60993;SDS011;47611;54.932;73.338;2022-07-23T11:47:09;13.13;;;8.07;;
60993;SDS011;47611;54.932;73.338;2022-07-23T11:49:37;13.50;;;6.45;;
60993;SDS011;47611;54.932;73.338;2022-07-23T11:52:07;13.25;;;7.10;;
60993;SDS011;47611;54.932;73.338;2022-07-23T11:54:46;25.70;;;8.00;;
60993;SDS011;47611;54.932;73.338;2022-07-23T11:57:26;33.88;;;8.95;;
60993;SDS011;47611;54.932;73.338;2022-07-23T11:59:56;24.15;;;9.52;;
60993;SDS011;47611;54.932;73.338;2022-07-23T12:02:22;22.13;;;7.72;;
60993;SDS011;47611;54.932;73.338;2022-07-23T12:04:53;13.57;;;5.85;;
60993;SDS011;47611;54.932;73.338;2022-07-23T12:07:31;10.20;;;4.95;;
60993;SDS011;47611;54.932;73.338;2022-07-23T12:10:43;8.63;;;4.43;;
60993;SDS011;47611;54.932;73.338;2022-07-23T12:12:51;6.78;;;4.97;;
60993;SDS011;47611;54.932;73.338;2022-07-23T12:15:22;6.82;;;4.40;;
60993;SDS011;47611;54.932;73.338;2022-07-23T12:17:49;14.68;;;5.30;;
60993;SDS011;47611;54.932;73.338;2022-07-23T12:20:28;10.73;;;5.15;;
60993;SDS011;47611;54.932;73.338;2022-07-23T12:22:56;9.93;;;5.18;;
60993;SDS011;47611;54.932;73.338;2022-07-23T12:25:23;7.93;;;5.00;;
60993;SDS011;47611;54.932;73.338;2022-07-23T12:28:03;8.30;;;4.93;;
60993;SDS011;47611;54.932;73.338;2022-07-23T12:33:01;7.20;;;5.00;;
60993;SDS011;47611;54.932;73.338;2022-07-23T12:35:31;7.05;;;3.85;;
60993;SDS011;47611;54.932;73.338;2022-07-23T12:38:03;5.10;;;4.13;;
60993;SDS011;47611;54.932;73.338;2022-07-23T12:43:02;6.90;;;4.07;;
60993;SDS011;47611;54.932;73.338;2022-07-23T12:45:45;11.05;;;4.80;;
60993;SDS011;47611;54.932;73.338;2022-07-23T12:48:18;7.40;;;4.10;;
60993;SDS011;47611;54.932;73.338;2022-07-23T12:50:48;7.47;;;4.30;;
60993;SDS011;47611;54.932;73.338;2022-07-23T12:53:28;6.00;;;3.92;;
60993;SDS011;47611;54.932;73.338;2022-07-23T12:56:14;6.40;;;4.45;;
60993;SDS011;47611;54.932;73.338;2022-07-23T13:01:06;7.00;;;4.72;;
60993;SDS011;47611;54.932;73.338;2022-07-23T13:03:33;18.63;;;11.32;;
60993;SDS011;47611;54.932;73.338;2022-07-23T13:06:00;25.42;;;16.73;;
60993;SDS011;47611;54.932;73.338;2022-07-23T13:08:27;29.40;;;18.88;;
60993;SDS011;47611;54.932;73.338;2022-07-23T13:10:53;20.60;;;13.35;;
60993;SDS011;47611;54.932;73.338;2022-07-23T13:13:20;20.40;;;12.82;;
60993;SDS011;47611;54.932;73.338;2022-07-23T13:15:46;21.17;;;15.20;;
60993;SDS011;47611;54.932;73.338;2022-07-23T13:18:12;15.10;;;12.05;;
60993;SDS011;47611;54.932;73.338;2022-07-23T13:20:38;16.35;;;11.15;;
60993;SDS011;47611;54.932;73.338;2022-07-23T13:23:05;10.48;;;6.65;;
60993;SDS011;47611;54.932;73.338;2022-07-23T13:28:07;8.32;;;6.03;;
60993;SDS011;47611;54.932;73.338;2022-07-23T13:30:33;10.77;;;7.03;;
60993;SDS011;47611;54.932;73.338;2022-07-23T13:33:04;11.30;;;7.70;;
60993;SDS011;47611;54.932;73.338;2022-07-23T13:38:09;9.02;;;6.70;;
60993;SDS011;47611;54.932;73.338;2022-07-23T13:40:36;11.45;;;7.80;;
60993;SDS011;47611;54.932;73.338;2022-07-23T13:43:04;9.63;;;6.20;;
60993;SDS011;47611;54.932;73.338;2022-07-23T13:45:31;9.73;;;6.07;;
60993;SDS011;47611;54.932;73.338;2022-07-23T13:47:57;15.38;;;6.50;;
60993;SDS011;47611;54.932;73.338;2022-07-23T13:50:23;12.00;;;7.68;;
60993;SDS011;47611;54.932;73.338;2022-07-23T13:52:49;14.57;;;9.35;;
60993;SDS011;47611;54.932;73.338;2022-07-23T13:55:15;32.67;;;22.90;;
60993;SDS011;47611;54.932;73.338;2022-07-23T13:57:43;18.80;;;12.80;;
60993;SDS011;47611;54.932;73.338;2022-07-23T14:00:09;22.80;;;13.90;;
60993;SDS011;47611;54.932;73.338;2022-07-23T14:02:36;15.10;;;9.10;;
60993;SDS011;47611;54.932;73.338;2022-07-23T14:05:04;14.88;;;8.57;;
60993;SDS011;47611;54.932;73.338;2022-07-23T14:07:36;12.48;;;7.93;;
60993;SDS011;47611;54.932;73.338;2022-07-23T14:10:03;16.38;;;8.00;;
60993;SDS011;47611;54.932;73.338;2022-07-23T14:12:33;12.75;;;5.68;;
60993;SDS011;47611;54.932;73.338;2022-07-23T14:14:59;10.40;;;5.78;;
60993;SDS011;47611;54.932;73.338;2022-07-23T14:17:25;10.50;;;5.57;;
60993;SDS011;47611;54.932;73.338;2022-07-23T14:19:51;7.70;;;4.90;;
60993;SDS011;47611;54.932;73.338;2022-07-23T14:22:17;7.82;;;4.65;;
60993;SDS011;47611;54.932;73.338;2022-07-23T14:24:43;8.13;;;5.15;;
60993;SDS011;47611;54.932;73.338;2022-07-23T14:27:15;10.57;;;6.00;;
60993;SDS011;47611;54.932;73.338;2022-07-23T14:29:40;8.95;;;6.05;;
60993;SDS011;47611;54.932;73.338;2022-07-23T14:32:06;8.65;;;5.05;;
60993;SDS011;47611;54.932;73.338;2022-07-23T14:34:35;8.40;;;5.35;;
60993;SDS011;47611;54.932;73.338;2022-07-23T14:37:06;9.35;;;5.47;;
60993;SDS011;47611;54.932;73.338;2022-07-23T14:39:37;10.25;;;5.07;;
60993;SDS011;47611;54.932;73.338;2022-07-23T14:42:03;12.13;;;5.35;;
60993;SDS011;47611;54.932;73.338;2022-07-23T14:44:30;11.25;;;6.00;;
60993;SDS011;47611;54.932;73.338;2022-07-23T14:46:55;9.32;;;5.78;;
60993;SDS011;47611;54.932;73.338;2022-07-23T14:49:27;10.80;;;5.40;;
60993;SDS011;47611;54.932;73.338;2022-07-23T14:51:53;13.02;;;7.15;;
60993;SDS011;47611;54.932;73.338;2022-07-23T14:54:19;13.77;;;6.88;;
60993;SDS011;47611;54.932;73.338;2022-07-23T14:56:45;10.77;;;6.90;;
60993;SDS011;47611;54.932;73.338;2022-07-23T14:59:16;13.68;;;7.70;;
60993;SDS011;47611;54.932;73.338;2022-07-23T15:01:46;17.27;;;7.40;;
60993;SDS011;47611;54.932;73.338;2022-07-23T15:04:12;9.27;;;6.07;;
60993;SDS011;47611;54.932;73.338;2022-07-23T15:06:38;9.98;;;6.70;;
60993;SDS011;47611;54.932;73.338;2022-07-23T15:09:04;12.95;;;5.85;;
60993;SDS011;47611;54.932;73.338;2022-07-23T15:11:31;7.85;;;5.40;;
60993;SDS011;47611;54.932;73.338;2022-07-23T15:14:00;9.20;;;5.20;;
60993;SDS011;47611;54.932;73.338;2022-07-23T15:16:26;8.65;;;5.40;;
60993;SDS011;47611;54.932;73.338;2022-07-23T15:18:53;11.02;;;7.53;;
60993;SDS011;47611;54.932;73.338;2022-07-23T15:21:24;15.50;;;8.93;;
60993;SDS011;47611;54.932;73.338;2022-07-23T15:23:50;13.85;;;9.55;;
60993;SDS011;47611;54.932;73.338;2022-07-23T15:26:17;13.68;;;8.25;;